createdAt,value
2023-02-17T00:01:28.942Z,28.30
2023-02-17T00:03:59.749Z,26.63
2023-02-17T00:06:30.698Z,26.73
2023-02-17T00:08:59.735Z,28.35
2023-02-17T00:11:28.305Z,29.35
2023-02-17T00:13:56.795Z,27.75
2023-02-17T00:16:26.773Z,28.67
2023-02-17T00:18:56.774Z,27.30
2023-02-17T00:21:28.555Z,28.33
2023-02-17T00:23:57.776Z,28.27
2023-02-17T00:26:25.317Z,28.90
2023-02-17T00:28:53.037Z,29.73
2023-02-17T00:31:22.379Z,28.23
2023-02-17T00:33:50.902Z,27.02
2023-02-17T00:36:20.601Z,28.77
2023-02-17T00:38:49.867Z,27.75
2023-02-17T00:41:18.364Z,29.00
2023-02-17T00:43:46.182Z,27.63
2023-02-17T00:46:14.851Z,30.42
2023-02-17T00:48:42.639Z,27.65
2023-02-17T00:51:12.943Z,28.38
2023-02-17T00:53:42.649Z,28.98
2023-02-17T00:56:11.867Z,30.00
2023-02-17T00:58:42.676Z,28.13
2023-02-17T01:01:12.839Z,27.90
2023-02-17T01:03:41.965Z,26.15
2023-02-17T01:06:11.429Z,27.45
2023-02-17T01:08:39.008Z,25.77
2023-02-17T01:11:06.916Z,27.27
2023-02-17T01:13:42.654Z,26.92
2023-02-17T01:16:17.889Z,25.75
2023-02-17T01:18:45.673Z,26.20
2023-02-17T01:21:17.504Z,26.00
2023-02-17T01:26:16.466Z,24.58
2023-02-17T01:28:45.779Z,26.58
2023-02-17T01:31:15.820Z,25.73
2023-02-17T01:33:44.145Z,26.15
2023-02-17T01:36:14.131Z,25.98
2023-02-17T01:38:42.022Z,25.55
2023-02-17T01:41:11.219Z,25.40
2023-02-17T01:43:38.949Z,26.20
2023-02-17T01:46:09.256Z,26.90
2023-02-17T01:48:41.554Z,26.60
2023-02-17T01:51:12.021Z,26.02
2023-02-17T01:53:44.617Z,25.97
2023-02-17T01:56:14.801Z,27.92
2023-02-17T01:58:46.937Z,25.70
2023-02-17T02:01:16.191Z,26.50
2023-02-17T02:03:45.206Z,25.88
2023-02-17T02:06:17.513Z,24.98
2023-02-17T02:08:51.958Z,25.60
2023-02-17T02:11:20.324Z,24.98
2023-02-17T02:13:50.243Z,24.23
2023-02-17T02:16:26.575Z,25.23
2023-02-17T02:19:02.935Z,25.95
2023-02-17T02:22:09.340Z,26.50
2023-02-17T02:24:55.682Z,26.45
2023-02-17T02:27:52.740Z,24.38
2023-02-17T02:30:43.816Z,24.40
2023-02-17T02:33:21.803Z,23.80
2023-02-17T02:35:58.284Z,22.35
2023-02-17T02:38:33.445Z,21.75
2023-02-17T02:41:06.722Z,21.10
2023-02-17T02:43:35.751Z,21.15
2023-02-17T02:46:07.440Z,20.20
2023-02-17T02:51:19.295Z,19.60
2023-02-17T02:54:05.023Z,20.95
2023-02-17T02:56:48.695Z,23.30
2023-02-17T02:59:30.061Z,22.35
2023-02-17T03:02:08.436Z,23.63
2023-02-17T03:04:39.801Z,23.75
2023-02-17T03:07:12.257Z,22.92
2023-02-17T03:09:41.752Z,23.15
2023-02-17T03:12:14.879Z,23.77
2023-02-17T03:14:44.658Z,24.08
2023-02-17T03:17:12.353Z,23.98
2023-02-17T03:19:41.664Z,23.08
2023-02-17T03:22:16.972Z,26.20
2023-02-17T03:25:15.777Z,26.92
2023-02-17T03:27:44.387Z,27.30
2023-02-17T03:30:13.560Z,27.60
2023-02-17T03:32:41.765Z,28.92
2023-02-17T03:35:11.065Z,29.20
2023-02-17T03:37:39.320Z,29.45
2023-02-17T03:40:09.037Z,29.08
2023-02-17T03:42:36.649Z,28.73
2023-02-17T03:45:04.718Z,27.10
2023-02-17T03:47:33.396Z,26.63
2023-02-17T03:50:01.760Z,26.83
2023-02-17T03:52:31.496Z,27.23
2023-02-17T03:54:59.999Z,24.65
2023-02-17T03:57:27.600Z,24.75
2023-02-17T04:00:00.117Z,23.90
2023-02-17T04:02:28.680Z,22.27
2023-02-17T04:04:56.195Z,21.95
2023-02-17T04:07:25.776Z,21.33
2023-02-17T04:09:55.526Z,22.27
2023-02-17T04:12:24.807Z,21.67
2023-02-17T04:14:54.142Z,21.77
2023-02-17T04:17:23.654Z,21.35
2023-02-17T04:19:51.663Z,19.65
2023-02-17T04:22:19.246Z,20.13
2023-02-17T04:24:47.652Z,19.50
2023-02-17T04:27:16.564Z,18.42
2023-02-17T04:29:44.171Z,17.42
2023-02-17T04:32:15.671Z,16.23
2023-02-17T04:34:43.255Z,16.23
2023-02-17T04:37:11.103Z,15.57
2023-02-17T04:39:40.168Z,13.38
2023-02-17T04:42:08.672Z,13.30
2023-02-17T04:44:37.618Z,12.48
2023-02-17T04:47:05.291Z,11.75
2023-02-17T04:49:57.605Z,11.60
2023-02-17T04:52:29.767Z,10.18
2023-02-17T04:54:59.659Z,10.52
2023-02-17T04:57:31.255Z,11.15
2023-02-17T05:00:00.694Z,11.27
2023-02-17T05:02:28.552Z,14.52
2023-02-17T05:04:56.678Z,13.45
2023-02-17T05:07:24.828Z,13.43
2023-02-17T05:09:54.670Z,12.63
2023-02-17T05:12:22.280Z,13.02
2023-02-17T05:14:49.931Z,12.75
2023-02-17T05:17:19.441Z,12.80
2023-02-17T05:20:11.655Z,12.48
2023-02-17T05:22:41.292Z,13.25
2023-02-17T05:25:09.563Z,12.45
2023-02-17T05:27:37.158Z,11.90
2023-02-17T05:30:05.676Z,10.27
2023-02-17T05:32:38.707Z,8.90
2023-02-17T05:37:35.655Z,8.07
2023-02-17T05:40:04.324Z,8.13
2023-02-17T05:42:33.664Z,7.60
2023-02-17T05:45:03.890Z,8.30
2023-02-17T05:47:31.770Z,8.25
2023-02-17T05:50:02.657Z,9.52
2023-02-17T05:52:55.944Z,9.77
2023-02-17T05:55:23.566Z,11.27
2023-02-17T05:57:51.683Z,10.30
2023-02-17T06:00:19.429Z,9.38
2023-02-17T06:02:47.682Z,9.38
2023-02-17T06:05:17.788Z,8.80
2023-02-17T06:07:46.203Z,9.40
2023-02-17T06:10:14.766Z,8.73
2023-02-17T06:12:43.088Z,8.80
2023-02-17T06:15:35.610Z,9.43
2023-02-17T06:18:04.699Z,9.10
2023-02-17T06:20:34.741Z,10.40
2023-02-17T06:23:04.673Z,10.70
2023-02-17T06:25:32.591Z,12.85
2023-02-17T06:28:01.679Z,14.18
2023-02-17T06:30:34.689Z,14.70
2023-02-17T06:33:02.478Z,14.63
2023-02-17T06:35:30.037Z,14.93
2023-02-17T06:38:02.910Z,15.40
2023-02-17T06:40:30.839Z,14.75
2023-02-17T06:43:00.109Z,15.55
2023-02-17T06:45:27.750Z,15.05
2023-02-17T06:47:55.667Z,16.55
2023-02-17T06:50:24.180Z,16.05
2023-02-17T06:55:49.656Z,17.10
2023-02-17T06:58:18.296Z,18.15
2023-02-17T07:00:46.812Z,20.02
2023-02-17T07:16:21.795Z,20.95
2023-02-17T07:18:50.699Z,20.90
2023-02-17T07:21:19.692Z,22.10
2023-02-17T07:23:51.387Z,22.17
2023-02-17T07:26:19.053Z,20.58
2023-02-17T07:28:50.680Z,21.02
2023-02-17T07:31:19.810Z,18.75
2023-02-17T07:33:48.509Z,20.48
2023-02-17T07:36:18.199Z,18.67
2023-02-17T07:38:47.706Z,19.92
2023-02-17T07:41:16.799Z,21.08
2023-02-17T07:43:45.677Z,19.88
2023-02-17T07:46:13.569Z,19.67
2023-02-17T07:48:42.817Z,19.98
2023-02-17T07:51:14.811Z,19.27
2023-02-17T07:53:43.289Z,19.10
2023-02-17T07:56:13.791Z,18.00
2023-02-17T07:59:09.226Z,17.60
2023-02-17T08:01:36.984Z,16.38
2023-02-17T08:04:06.380Z,16.13
2023-02-17T08:06:34.297Z,16.42
2023-02-17T08:09:19.247Z,15.82
2023-02-17T08:12:10.721Z,17.33
2023-02-17T08:14:40.719Z,16.77
2023-02-17T08:17:08.847Z,18.90
2023-02-17T08:19:48.033Z,19.50
2023-02-17T08:22:20.263Z,19.55
2023-02-17T08:24:48.190Z,21.27
2023-02-17T08:27:16.829Z,21.08
2023-02-17T08:29:44.874Z,21.05
2023-02-17T08:32:15.768Z,21.38
2023-02-17T08:34:45.144Z,21.55
2023-02-17T08:37:16.326Z,21.90
2023-02-17T08:39:44.081Z,20.67
2023-02-17T08:42:12.276Z,19.77
2023-02-17T08:44:39.991Z,18.17
2023-02-17T08:47:10.355Z,19.08
2023-02-17T08:49:41.723Z,17.08
2023-02-17T08:52:11.554Z,16.27
2023-02-17T08:54:40.151Z,15.38
2023-02-17T08:57:07.945Z,16.25
2023-02-17T08:59:35.794Z,16.35
2023-02-17T09:02:05.368Z,16.77
2023-02-17T09:04:33.009Z,16.25
2023-02-17T09:07:26.699Z,16.85
2023-02-17T09:09:55.637Z,16.10
2023-02-17T09:12:24.104Z,15.82
2023-02-17T09:14:51.781Z,16.45
2023-02-17T09:17:19.472Z,15.93
2023-02-17T09:19:48.282Z,16.08
2023-02-17T09:22:30.753Z,17.02
2023-02-17T09:25:00.316Z,17.23
2023-02-17T09:27:28.761Z,17.88
2023-02-17T09:29:56.425Z,17.40
2023-02-17T09:32:25.747Z,17.77
2023-02-17T09:35:19.779Z,17.55
2023-02-17T09:42:02.730Z,16.58
2023-02-17T09:44:37.583Z,16.13
2023-02-17T09:47:10.549Z,15.88
2023-02-17T09:50:10.399Z,15.32
2023-02-17T09:52:48.912Z,13.98
2023-02-17T09:55:21.765Z,12.48
2023-02-17T09:57:56.880Z,11.13
2023-02-17T10:00:27.848Z,10.02
2023-02-17T10:03:00.242Z,10.03
2023-02-17T10:05:34.873Z,9.35
2023-02-17T10:08:13.509Z,7.72
2023-02-17T10:10:46.871Z,8.15
2023-02-17T10:13:21.714Z,7.93
2023-02-17T10:15:54.031Z,8.20
2023-02-17T10:18:29.715Z,7.60
2023-02-17T10:21:04.760Z,6.63
2023-02-17T10:23:35.695Z,7.45
2023-02-17T10:26:14.684Z,6.85
2023-02-17T10:28:51.531Z,7.47
2023-02-17T10:31:43.918Z,6.40
2023-02-17T10:34:24.355Z,6.85
2023-02-17T10:37:00.059Z,6.95
2023-02-17T10:39:40.522Z,6.28
2023-02-17T10:42:15.246Z,6.38
2023-02-17T10:45:20.710Z,6.70
2023-02-17T10:47:48.745Z,6.20
2023-02-17T10:50:22.115Z,6.22
2023-02-17T10:52:53.685Z,6.85
2023-02-17T10:55:26.632Z,6.30
2023-02-17T10:58:00.404Z,6.50
2023-02-17T11:00:30.524Z,6.63
2023-02-17T11:02:58.184Z,6.82
2023-02-17T11:05:28.279Z,5.93
2023-02-17T11:07:58.870Z,6.47
2023-02-17T11:10:29.726Z,6.03
2023-02-17T11:12:58.649Z,5.85
2023-02-17T11:15:30.010Z,6.03
2023-02-17T11:18:10.776Z,6.18
2023-02-17T11:20:39.277Z,5.82
2023-02-17T11:23:21.875Z,6.07
2023-02-17T11:26:01.705Z,5.88
2023-02-17T11:28:30.428Z,5.40
2023-02-17T11:31:02.662Z,6.03
2023-02-17T11:33:35.791Z,5.82
2023-02-17T11:36:05.047Z,5.82
2023-02-17T11:38:44.604Z,5.88
2023-02-17T11:41:12.325Z,5.45
2023-02-17T11:43:40.784Z,5.90
2023-02-17T11:46:28.513Z,5.22
2023-02-17T11:49:26.436Z,5.50
2023-02-17T11:52:08.649Z,5.15
2023-02-17T11:54:55.805Z,5.18
2023-02-17T11:57:36.328Z,5.00
2023-02-17T12:00:14.547Z,5.20
2023-02-17T12:02:57.765Z,5.65
2023-02-17T12:05:37.003Z,5.43
2023-02-17T12:08:17.663Z,4.93
2023-02-17T12:10:57.927Z,5.10
2023-02-17T12:13:36.830Z,5.10
2023-02-17T12:16:19.328Z,5.00
2023-02-17T12:19:00.726Z,4.90
2023-02-17T12:21:57.792Z,5.13
2023-02-17T12:24:42.686Z,4.88
2023-02-17T12:27:25.127Z,5.20
2023-02-17T12:30:12.837Z,4.70
2023-02-17T12:32:55.710Z,5.25
2023-02-17T12:35:25.731Z,4.80
2023-02-17T12:37:58.332Z,5.00
2023-02-17T12:43:34.756Z,5.15
2023-02-17T12:46:10.677Z,5.00
2023-02-17T12:48:44.728Z,4.55
2023-02-17T12:51:21.858Z,4.70
2023-02-17T12:53:57.814Z,4.65
2023-02-17T12:57:02.254Z,5.15
2023-02-17T12:59:34.258Z,4.88
2023-02-17T13:02:08.451Z,4.80
2023-02-17T13:04:36.801Z,4.97
2023-02-17T13:07:16.503Z,4.75
2023-02-17T13:09:47.819Z,5.60
2023-02-17T13:12:40.375Z,5.15
2023-02-17T13:15:27.307Z,5.35
2023-02-17T13:17:57.253Z,5.53
2023-02-17T13:20:38.971Z,5.63
2023-02-17T13:25:39.067Z,6.13
2023-02-17T13:28:35.330Z,6.20
2023-02-17T13:31:18.772Z,5.90
2023-02-17T13:33:50.845Z,6.38
2023-02-17T13:39:01.526Z,6.82
2023-02-17T13:41:44.727Z,7.57
2023-02-17T13:44:28.006Z,7.53
2023-02-17T13:47:03.826Z,7.50
2023-02-17T13:49:35.381Z,8.38
2023-02-17T13:52:11.626Z,9.13
2023-02-17T13:54:39.410Z,9.45
2023-02-17T13:57:28.105Z,9.93
2023-02-17T14:00:07.844Z,10.20
2023-02-17T14:02:46.541Z,10.23
2023-02-17T14:05:19.752Z,10.00
2023-02-17T14:07:48.728Z,10.38
2023-02-17T14:10:19.953Z,10.20
2023-02-17T14:12:49.859Z,10.13
2023-02-17T14:15:19.777Z,9.95
2023-02-17T14:17:47.831Z,10.15
2023-02-17T14:20:31.116Z,9.10
2023-02-17T14:23:05.529Z,9.23
2023-02-17T14:25:37.737Z,9.80
2023-02-17T14:28:18.867Z,8.80
2023-02-17T14:30:46.994Z,8.60
2023-02-17T14:33:21.933Z,8.80
2023-02-17T14:35:55.788Z,8.45
2023-02-17T14:38:31.878Z,8.77
2023-02-17T14:41:01.725Z,8.45
2023-02-17T14:43:31.190Z,8.25
2023-02-17T14:45:59.857Z,8.45
2023-02-17T14:48:28.133Z,8.23
2023-02-17T14:50:58.137Z,9.00
2023-02-17T14:53:27.733Z,9.15
2023-02-17T14:56:01.790Z,8.27
2023-02-17T14:58:31.842Z,7.32
2023-02-17T15:01:00.841Z,8.13
2023-02-17T15:03:28.446Z,6.70
2023-02-17T15:05:56.436Z,6.38
2023-02-17T15:08:32.143Z,6.40
2023-02-17T15:11:00.263Z,6.15
2023-02-17T15:13:27.815Z,6.13
2023-02-17T15:15:56.829Z,5.95
2023-02-17T15:18:25.965Z,5.70
2023-02-17T15:20:55.446Z,5.55
2023-02-17T15:23:25.484Z,5.60
2023-02-17T15:25:54.902Z,5.00
2023-02-17T15:28:23.365Z,4.93
2023-02-17T15:30:54.404Z,4.90
2023-02-17T15:33:27.020Z,4.75
2023-02-17T15:35:55.420Z,4.70
2023-02-17T15:38:24.754Z,4.90
2023-02-17T15:41:21.361Z,4.63
2023-02-17T15:43:50.823Z,5.18
2023-02-17T15:46:20.774Z,4.57
2023-02-17T15:48:50.004Z,4.63
2023-02-17T15:51:19.913Z,4.63
2023-02-17T15:53:47.943Z,4.50
2023-02-17T15:56:20.464Z,4.78
2023-02-17T15:58:49.858Z,4.30
2023-02-17T16:01:23.154Z,3.95
2023-02-17T16:03:52.177Z,4.13
2023-02-17T16:06:19.774Z,4.45
2023-02-17T16:08:47.426Z,4.38
2023-02-17T16:11:16.648Z,4.18
2023-02-17T16:13:49.730Z,4.22
2023-02-17T16:16:22.854Z,3.97
2023-02-17T16:18:52.360Z,3.88
2023-02-17T16:21:19.972Z,4.13
2023-02-17T16:23:47.890Z,4.15
2023-02-17T16:26:25.729Z,4.03
2023-02-17T16:28:54.984Z,4.90
2023-02-17T16:31:23.534Z,4.18
2023-02-17T16:33:59.404Z,4.55
2023-02-17T16:36:30.853Z,4.50
2023-02-17T16:38:59.342Z,4.50
2023-02-17T16:41:27.051Z,5.03
2023-02-17T16:43:55.753Z,4.65
2023-02-17T16:46:29.664Z,4.63
2023-02-17T16:49:02.768Z,4.55
2023-02-17T16:51:33.723Z,4.53
2023-02-17T16:54:03.840Z,4.70
2023-02-17T16:56:37.843Z,4.90
2023-02-17T16:59:05.828Z,4.70
2023-02-17T17:01:33.441Z,5.55
2023-02-17T17:04:02.635Z,5.03
2023-02-17T17:06:31.537Z,4.78
2023-02-17T17:08:59.194Z,5.10
2023-02-17T17:11:28.399Z,4.63
2023-02-17T17:13:56.392Z,5.25
2023-02-17T17:16:27.795Z,4.82
2023-02-17T17:18:55.594Z,5.03
2023-02-17T17:21:24.545Z,4.68
2023-02-17T17:23:52.876Z,5.28
2023-02-17T17:26:25.408Z,5.15
2023-02-17T17:28:53.562Z,5.10
2023-02-17T17:31:22.686Z,5.32
2023-02-17T17:33:51.629Z,5.07
2023-02-17T17:36:25.675Z,4.95
2023-02-17T17:38:54.504Z,4.85
2023-02-17T17:41:23.073Z,4.95
2023-02-17T17:43:51.594Z,5.32
2023-02-17T17:46:23.804Z,4.82
2023-02-17T17:48:52.487Z,4.88
2023-02-17T17:51:22.853Z,4.88
2023-02-17T17:53:51.988Z,5.10
2023-02-17T17:56:23.314Z,4.90
2023-02-17T17:58:51.875Z,5.38
2023-02-17T18:01:20.263Z,5.07
2023-02-17T18:03:49.766Z,5.07
2023-02-17T18:06:20.964Z,4.85
2023-02-17T18:08:51.292Z,5.13
2023-02-17T18:11:22.776Z,5.32
2023-02-17T18:13:53.047Z,5.25
2023-02-17T18:16:22.734Z,5.65
2023-02-17T18:18:51.751Z,5.40
2023-02-17T18:21:19.419Z,5.80
2023-02-17T18:23:48.728Z,5.60
2023-02-17T18:26:16.718Z,5.43
2023-02-17T18:28:45.897Z,5.88
2023-02-17T18:31:15.239Z,5.60
2023-02-17T18:33:44.043Z,5.40
2023-02-17T18:36:13.901Z,5.43
2023-02-17T18:38:42.016Z,5.75
2023-02-17T18:41:17.092Z,6.55
2023-02-17T18:43:48.492Z,5.65
2023-02-17T18:46:16.205Z,5.90
2023-02-17T18:48:43.971Z,6.63
2023-02-17T18:51:13.726Z,6.55
2023-02-17T18:53:42.058Z,6.70
2023-02-17T18:56:12.801Z,6.30
2023-02-17T18:58:40.823Z,6.25
2023-02-17T19:01:15.826Z,6.75
2023-02-17T19:03:43.555Z,7.22
2023-02-17T19:06:14.721Z,7.40
2023-02-17T19:08:42.702Z,7.05
2023-02-17T19:11:10.546Z,7.20
2023-02-17T19:13:38.227Z,7.32
2023-02-17T19:16:08.189Z,7.38
2023-02-17T19:18:37.818Z,6.18
2023-02-17T19:21:06.416Z,6.15
2023-02-17T19:23:35.909Z,6.22
2023-02-17T19:26:05.309Z,6.85
2023-02-17T19:28:33.855Z,7.63
2023-02-17T19:31:01.772Z,7.03
2023-02-17T19:33:29.584Z,6.05
2023-02-17T19:35:58.826Z,6.22
2023-02-17T19:38:26.584Z,5.97
2023-02-17T19:40:54.243Z,5.72
2023-02-17T19:43:21.943Z,4.80
2023-02-17T19:45:53.847Z,5.03
2023-02-17T19:48:24.096Z,5.00
2023-02-17T19:50:51.789Z,5.22
2023-02-17T19:53:20.707Z,4.53
2023-02-17T19:55:48.339Z,5.22
2023-02-17T19:58:15.974Z,4.75
2023-02-17T20:00:43.870Z,5.75
2023-02-17T20:03:12.117Z,5.70
2023-02-17T20:05:40.036Z,5.05
2023-02-17T20:08:08.807Z,5.10
2023-02-17T20:10:40.532Z,4.45
2023-02-17T20:13:08.486Z,4.80
2023-02-17T20:15:36.206Z,5.05
2023-02-17T20:18:03.841Z,5.57
2023-02-17T20:20:31.521Z,5.25
2023-02-17T20:22:59.091Z,5.85
2023-02-17T20:25:27.226Z,5.65
2023-02-17T20:27:56.503Z,6.00
2023-02-17T20:30:24.413Z,6.28
2023-02-17T20:32:52.069Z,6.05
2023-02-17T20:35:19.629Z,6.78
2023-02-17T20:37:47.520Z,6.47
2023-02-17T20:40:15.153Z,7.53
2023-02-17T20:42:44.320Z,6.95
2023-02-17T20:45:13.261Z,7.10
2023-02-17T20:47:40.868Z,6.75
2023-02-17T20:50:09.304Z,7.32
2023-02-17T20:52:37.838Z,7.03
2023-02-17T20:55:05.681Z,6.95
2023-02-17T20:57:33.306Z,7.63
2023-02-17T21:00:00.956Z,6.78
2023-02-17T21:02:29.885Z,6.80
2023-02-17T21:04:57.667Z,7.00
2023-02-17T21:07:25.480Z,7.30
2023-02-17T21:09:53.768Z,7.00
2023-02-17T21:12:21.357Z,7.07
2023-02-17T21:14:49.006Z,7.60
2023-02-17T21:17:18.374Z,7.57
2023-02-17T21:19:47.363Z,8.15
2023-02-17T21:22:14.986Z,8.25
2023-02-17T21:24:42.585Z,8.35
2023-02-17T21:27:10.234Z,8.32
2023-02-17T21:29:37.835Z,8.05
2023-02-17T21:32:06.601Z,8.30
2023-02-17T21:34:37.749Z,7.80
2023-02-17T21:37:07.947Z,8.07
2023-02-17T21:39:37.101Z,8.00
2023-02-17T21:42:05.145Z,7.43
2023-02-17T21:44:50.341Z,8.43
2023-02-17T21:47:18.982Z,8.35
2023-02-17T21:49:48.766Z,8.18
2023-02-17T21:52:22.724Z,8.85
2023-02-17T21:54:50.388Z,9.88
2023-02-17T21:57:18.013Z,9.40
2023-02-17T21:59:45.616Z,9.73
2023-02-17T22:02:13.900Z,9.68
2023-02-17T22:04:41.559Z,9.73
2023-02-17T22:07:09.210Z,9.20
2023-02-17T22:09:39.590Z,10.15
2023-02-17T22:12:08.051Z,9.68
2023-02-17T22:14:36.183Z,10.10
2023-02-17T22:17:03.871Z,10.93
2023-02-17T22:19:31.732Z,11.40
2023-02-17T22:21:59.770Z,13.10
2023-02-17T22:24:28.201Z,13.57
2023-02-17T22:26:57.242Z,12.70
2023-02-17T22:29:25.762Z,14.13
2023-02-17T22:31:55.818Z,14.27
2023-02-17T22:34:26.056Z,14.50
2023-02-17T22:36:53.642Z,14.15
2023-02-17T22:39:21.269Z,13.45
2023-02-17T22:41:49.345Z,12.98
2023-02-17T22:44:18.598Z,13.88
2023-02-17T22:46:46.426Z,13.27
2023-02-17T22:49:14.155Z,13.63
2023-02-17T22:51:41.819Z,13.25
2023-02-17T22:54:10.309Z,12.82
2023-02-17T22:56:38.998Z,13.25
2023-02-17T22:59:07.398Z,13.52
2023-02-17T23:01:37.455Z,12.93
2023-02-17T23:04:06.500Z,12.55
2023-02-17T23:06:36.770Z,12.73
2023-02-17T23:09:06.844Z,12.63
2023-02-17T23:11:53.704Z,13.18
2023-02-17T23:14:26.443Z,13.45
2023-02-17T23:16:59.007Z,13.75
2023-02-17T23:19:27.208Z,13.20
2023-02-17T23:21:57.661Z,13.25
2023-02-17T23:24:26.865Z,12.88
2023-02-17T23:26:55.751Z,13.40
2023-02-17T23:29:23.581Z,14.30
2023-02-17T23:31:51.235Z,13.98
2023-02-17T23:34:20.434Z,14.63
2023-02-17T23:36:48.617Z,14.32
2023-02-17T23:39:16.972Z,16.10
2023-02-17T23:41:45.549Z,15.13
2023-02-17T23:44:14.323Z,16.67
2023-02-17T23:46:43.013Z,16.10
2023-02-17T23:49:14.009Z,16.55
2023-02-17T23:51:43.318Z,16.57
2023-02-17T23:54:11.634Z,16.55
2023-02-17T23:56:39.409Z,16.33
2023-02-17T23:59:07.388Z,16.95
